Main page
METAR-TAF:

METAR-TAF

Airports :

Alderney Airport

Alderney,

latitude: 49-43N, longitude: 002-12W, elevation: 71 m

Current weather observation

The report was made 37 minutes ago, at 16:20 UTC
Wind 8 kt from the Northeast
Temperature 14°C
Humidity 94%
Pressure 1007 hPa
Visibility 10 km or more
Broken clouds at a height of 900 ft

METAR: EGJA 231620Z 05008KT 9999 BKN009 14/13 Q1007

Time: 17:57 (16:57 UTC)

Forecast

The report was made 2 hours and 58 minutes ago, at 13:59 UTC
Forecast valid from 23 at 15 UTC to 24 at 00 UTC
Wind 12 kt from the East/Northeast
Visibility 10 km or more
Few clouds at a height of 1000 ft
Probability 40% :
Temporary
from 23 at 15 UTC to 24 at 00 UTC
Visibility: 5000 m
Broken clouds at a height of 500 ft
light drizzle
Becoming
from 23 at 19 UTC to 23 at 21 UTC
Wind 4 kt from variable directions

TAF: EGJA 231359Z 2315/2400 07012KT 9999 FEW010 PROB40 TEMPO 2315/2400 5000 -DZ BKN005 BECMG 2319/2321 VRB04KT

Weather observations and forecasts of more than 4000 airports (METAR and TAF reports).

The available stations are represented by yellow and red dots on the map.

Hover mouse over dot to see the name of the station.

Then click to see weather observations and forecasts.

To change the map : click on the green buttons with a black cross to zoom in, on the green button with a dash to zoom out, or on the green arrows for adjacent maps.


METAR-TAF: